»·PEaware :: N2494V KOTH-KEUG

N2494V :: KOTH-KEUG

FLIGHT INFORMATION

Flight Status: Arrived
Operator: Privately registered:
United States
More flights under this callsign
Pilot: Sally S. (18014)
Aircraft: Unknown
(DA62)
More flights by this aircraft type
Origin: KOTH North Bend Mun
United States
Destination: KEUG Mahlon Sweet
United States
More flights between these airports :: More routes between these airports
Route: +OTH VAUGN
File this flight plan on PilotEdge
Remarks:
Altitude:
(Current/Filed)
5,500ft
Speed:
(Current/Filed)
165kts
Departed: 02-May-18 10:07 AM
Arrived: 02-May-18 10:58 AM
Distance/Time
Traveled:
62nm/0:51
Distance/Time
To Go:
Arrived

Flight Plot

Page will automatically refresh every two minutes.

Flight plan parsing failed; only flown route is shown


Map Options




Map Legend


Flown Route
Filed Route
Departure Airport
Arrival Airport
Navaid (VOR, NDB)
Fix

Horizontal Profiles

Position Reports

Time Latitude Longitude Heading Altitude Ground
Speed
02-May-18 09:49 43.415511 -124.245651 330 21ft 0kts
02-May-18 09:50 43.415511 -124.245651 330 21ft 0kts
02-May-18 09:51 43.415511 -124.245651 330 21ft 0kts
02-May-18 09:52 43.415511 -124.245651 330 21ft 0kts
02-May-18 09:53 43.415511 -124.245651 330 21ft 0kts
02-May-18 09:54 43.415511 -124.245651 330 21ft 0kts
02-May-18 09:55 43.415511 -124.245651 330 21ft 0kts
02-May-18 09:56 43.415511 -124.245651 330 21ft 0kts
02-May-18 09:57 43.415511 -124.245651 330 21ft 0kts
02-May-18 09:58 43.415511 -124.245651 330 21ft 0kts
02-May-18 09:59 43.415511 -124.245651 330 21ft 0kts
02-May-18 10:00 43.415511 -124.245651 330 21ft 0kts
02-May-18 10:02 43.415511 -124.245651 330 21ft 0kts
02-May-18 10:03 43.415035 -124.243841 143 21ft 9kts
02-May-18 10:04 43.410979 -124.240530 147 21ft 16kts
02-May-18 10:05 43.408959 -124.238707 84 21ft 0kts
02-May-18 10:06 43.409335 -124.237955 28 21ft 6kts
02-May-18 10:07 43.426252 -124.252114 327 798ft 89kts
02-May-18 10:08 43.449405 -124.260497 7 1934ft 93kts
02-May-18 10:09 43.473210 -124.244900 49 2917ft 107kts
02-May-18 10:10 43.490225 -124.211165 50 3933ft 108kts
02-May-18 10:11 43.506907 -124.177332 50 4857ft 108kts
02-May-18 10:12 43.523259 -124.143665 45 5441ft 108kts
02-May-18 10:13 43.545270 -124.109115 44 5475ft 129kts
02-May-18 10:14 43.569850 -124.071725 43 5472ft 133kts
02-May-18 10:15 43.594903 -124.033906 43 5471ft 134kts
02-May-18 10:16 43.619895 -123.995791 43 5471ft 134kts
02-May-18 10:17 43.644922 -123.957480 43 5471ft 134kts
02-May-18 10:18 43.670706 -123.922741 15 5477ft 130kts
02-May-18 10:19 43.702618 -123.912576 11 5471ft 131kts
02-May-18 10:20 43.738131 -123.901759 11 5471ft 131kts
02-May-18 10:21 43.773580 -123.890951 11 5471ft 131kts
02-May-18 10:22 43.810459 -123.879430 12 5476ft 141kts
02-May-18 10:23 43.849263 -123.866555 12 5472ft 144kts
02-May-18 10:24 43.888196 -123.853217 12 5482ft 145kts
02-May-18 10:25 43.925540 -123.839836 12 5493ft 145kts
02-May-18 10:26 43.963936 -123.822303 29 5503ft 149kts
02-May-18 10:27 43.997915 -123.788862 31 5511ft 150kts
02-May-18 10:28 44.029231 -123.751124 51 5509ft 154kts
02-May-18 10:29 44.052339 -123.701838 51 5506ft 153kts
02-May-18 10:30 44.076172 -123.653676 47 5502ft 151kts
02-May-18 10:31 44.101536 -123.608240 47 5499ft 151kts
02-May-18 10:32 44.124727 -123.567074 47 5500ft 151kts
02-May-18 10:33 44.151310 -123.523313 46 5500ft 150kts
02-May-18 10:34 44.177276 -123.481485 44 5500ft 150kts
02-May-18 10:35 44.205188 -123.438546 44 5500ft 149kts
02-May-18 10:36 44.232100 -123.397688 44 5500ft 148kts
02-May-18 10:37 44.259784 -123.356214 44 5115ft 147kts
02-May-18 10:38 44.294097 -123.328006 25 4163ft 150kts
02-May-18 10:39 44.331576 -123.303558 26 3179ft 151kts
02-May-18 10:40 44.368871 -123.278505 26 2193ft 151kts
02-May-18 10:41 44.404457 -123.266758 352 1996ft 122kts
02-May-18 10:42 44.435917 -123.274586 353 1998ft 111kts
02-May-18 10:43 44.465665 -123.279734 17 2000ft 106kts
02-May-18 10:44 44.480504 -123.252009 116 1998ft 109kts
02-May-18 10:44 44.455918 -123.241743 172 2000ft 117kts
02-May-18 10:46 44.417825 -123.238170 173 2000ft 118kts
02-May-18 10:47 44.385036 -123.235210 173 2000ft 119kts
02-May-18 10:48 44.349413 -123.231924 174 1546ft 145kts
02-May-18 10:49 44.313109 -123.228717 174 1495ft 121kts
02-May-18 10:50 44.280937 -123.228254 184 1331ft 117kts
02-May-18 10:51 44.247624 -123.231565 179 1087ft 115kts
02-May-18 10:51 44.220494 -123.235641 212 1095ft 122kts
02-May-18 10:52 44.187863 -123.242684 175 1094ft 120kts
02-May-18 10:53 44.154075 -123.239190 172 1220ft 106kts
02-May-18 10:54 44.125007 -123.232374 178 1123ft 108kts
02-May-18 10:55 44.099318 -123.223857 63 897ft 105kts
02-May-18 10:56 44.121465 -123.218915 3 378ft 48kts
02-May-18 10:57 44.125017 -123.217490 143 378ft 2kts

Navigation Log

Ident Type
Flight plan parsing failed, navigation log unavailable